createdAt,value
2023-10-04T00:00:07.454Z,100.00
2023-10-04T00:01:10.873Z,100.00
2023-10-04T00:02:12.534Z,100.00
2023-10-04T00:03:14.186Z,100.00
2023-10-04T00:04:15.954Z,100.00
2023-10-04T00:05:18.941Z,100.00
2023-10-04T00:06:20.623Z,100.00
2023-10-04T00:07:22.268Z,100.00
2023-10-04T00:08:23.876Z,100.00
2023-10-04T00:09:25.562Z,100.00
2023-10-04T00:10:27.223Z,100.00
2023-10-04T00:11:28.795Z,100.00
2023-10-04T00:12:30.462Z,100.00
2023-10-04T00:13:32.772Z,100.00
2023-10-04T00:14:34.378Z,100.00
2023-10-04T00:15:36.024Z,100.00
2023-10-04T00:16:37.848Z,100.00
2023-10-04T00:17:43.809Z,100.00
2023-10-04T00:18:45.602Z,100.00
2023-10-04T00:19:47.392Z,100.00
2023-10-04T00:20:49.045Z,100.00
2023-10-04T00:21:50.741Z,100.00
2023-10-04T00:22:53.537Z,100.00
2023-10-04T00:23:55.232Z,100.00
2023-10-04T00:24:57.018Z,100.00
2023-10-04T00:25:58.767Z,100.00
2023-10-04T00:27:00.514Z,100.00
2023-10-04T00:28:02.405Z,100.00
2023-10-04T00:29:04.430Z,100.00
2023-10-04T00:30:07.191Z,100.00
2023-10-04T00:31:08.925Z,100.00
2023-10-04T00:32:10.920Z,100.00
2023-10-04T00:33:12.587Z,100.00
2023-10-04T00:34:14.256Z,100.00
2023-10-04T00:35:17.677Z,100.00
2023-10-04T00:36:19.743Z,100.00
2023-10-04T00:37:21.334Z,100.00
2023-10-04T00:38:23.034Z,100.00
2023-10-04T00:39:24.750Z,100.00
2023-10-04T00:40:31.982Z,100.00
2023-10-04T00:41:33.733Z,100.00
2023-10-04T00:42:35.342Z,100.00
2023-10-04T00:43:53.132Z,100.00
2023-10-04T00:44:54.776Z,100.00
2023-10-04T00:45:56.516Z,100.00
2023-10-04T00:46:58.187Z,100.00
2023-10-04T00:48:03.985Z,100.00
2023-10-04T00:49:05.986Z,100.00
2023-10-04T00:50:08.000Z,100.00
2023-10-04T00:51:09.681Z,100.00
2023-10-04T00:52:11.325Z,100.00
2023-10-04T00:53:20.787Z,100.00
2023-10-04T00:54:22.583Z,100.00
2023-10-04T00:55:24.839Z,100.00
2023-10-04T00:56:26.576Z,100.00
2023-10-04T00:57:28.704Z,100.00
2023-10-04T00:58:30.614Z,100.00
2023-10-04T00:59:32.268Z,100.00
2023-10-04T01:00:35.936Z,100.00
2023-10-04T01:01:37.676Z,100.00
2023-10-04T01:02:39.452Z,100.00
2023-10-04T01:03:41.321Z,100.00
2023-10-04T01:04:42.988Z,100.00
2023-10-04T01:05:44.726Z,100.00
2023-10-04T01:06:46.422Z,100.00
2023-10-04T01:07:48.330Z,100.00
2023-10-04T01:08:49.925Z,100.00
2023-10-04T01:09:51.804Z,100.00
2023-10-04T01:10:53.643Z,100.00
2023-10-04T01:11:55.256Z,100.00
2023-10-04T01:12:56.974Z,100.00
2023-10-04T01:13:58.576Z,100.00
2023-10-04T01:15:00.328Z,100.00
2023-10-04T01:16:02.531Z,100.00
2023-10-04T01:17:04.930Z,100.00
2023-10-04T01:18:09.699Z,100.00
2023-10-04T01:19:11.668Z,100.00
2023-10-04T01:20:14.028Z,100.00
2023-10-04T01:21:15.686Z,100.00
2023-10-04T01:22:17.337Z,100.00
2023-10-04T01:23:19.006Z,100.00
2023-10-04T01:24:20.755Z,100.00
2023-10-04T01:25:22.407Z,100.00
2023-10-04T01:26:24.044Z,100.00
2023-10-04T01:27:25.715Z,100.00
2023-10-04T01:28:27.686Z,100.00
2023-10-04T01:29:29.301Z,100.00
2023-10-04T01:30:31.020Z,100.00
2023-10-04T01:31:32.682Z,100.00
2023-10-04T01:32:34.333Z,100.00
2023-10-04T01:33:36.009Z,100.00
2023-10-04T01:34:37.898Z,100.00
2023-10-04T01:35:40.079Z,100.00
2023-10-04T01:36:41.747Z,100.00
2023-10-04T01:37:43.416Z,100.00
2023-10-04T01:38:45.033Z,100.00
2023-10-04T01:39:46.617Z,100.00
2023-10-04T01:40:48.232Z,100.00
2023-10-04T01:41:49.862Z,100.00
2023-10-04T01:42:51.805Z,100.00
2023-10-04T01:43:53.416Z,100.00
2023-10-04T01:44:55.847Z,100.00
2023-10-04T01:45:59.952Z,100.00
2023-10-04T01:47:02.638Z,100.00
2023-10-04T01:48:05.466Z,100.00
2023-10-04T01:49:07.269Z,100.00
2023-10-04T01:50:09.464Z,100.00
2023-10-04T01:51:11.095Z,100.00
2023-10-04T01:52:12.727Z,100.00
2023-10-04T01:53:14.499Z,100.00
2023-10-04T01:54:16.108Z,100.00
2023-10-04T01:55:17.808Z,100.00
2023-10-04T01:56:20.347Z,100.00
2023-10-04T01:57:22.042Z,100.00
2023-10-04T01:58:23.834Z,100.00
2023-10-04T01:59:25.436Z,100.00
2023-10-04T02:00:28.461Z,100.00
2023-10-04T02:01:30.982Z,100.00
2023-10-04T02:02:32.642Z,100.00
2023-10-04T02:03:34.346Z,100.00
2023-10-04T02:04:35.973Z,100.00
2023-10-04T02:05:37.586Z,100.00
2023-10-04T02:06:39.257Z,100.00
2023-10-04T02:07:40.904Z,100.00
2023-10-04T02:08:42.477Z,100.00
2023-10-04T02:09:44.544Z,100.00
2023-10-04T02:10:46.482Z,100.00
2023-10-04T02:11:48.393Z,100.00
2023-10-04T02:12:51.040Z,100.00
2023-10-04T02:13:52.647Z,100.00
2023-10-04T02:14:54.470Z,100.00
2023-10-04T02:15:56.191Z,100.00
2023-10-04T02:16:57.811Z,100.00
2023-10-04T02:17:59.672Z,100.00
2023-10-04T02:19:01.525Z,100.00
2023-10-04T02:20:03.476Z,100.00
2023-10-04T02:21:05.090Z,100.00
2023-10-04T02:22:06.726Z,100.00
2023-10-04T02:23:08.311Z,100.00
2023-10-04T02:24:09.965Z,100.00
2023-10-04T02:25:11.672Z,100.00
2023-10-04T02:26:13.435Z,100.00
2023-10-04T02:27:15.050Z,100.00
2023-10-04T02:28:16.887Z,100.00
2023-10-04T02:29:18.626Z,100.00
2023-10-04T02:30:20.708Z,100.00
2023-10-04T02:31:22.597Z,100.00
2023-10-04T02:32:24.244Z,100.00
2023-10-04T02:33:25.955Z,100.00
2023-10-04T02:34:27.811Z,100.00
2023-10-04T02:35:29.630Z,100.00
2023-10-04T02:36:31.434Z,100.00
2023-10-04T02:37:33.171Z,100.00
2023-10-04T02:38:35.233Z,100.00
2023-10-04T02:39:37.660Z,100.00
2023-10-04T02:40:39.300Z,100.00
2023-10-04T02:41:40.956Z,100.00
2023-10-04T02:42:44.322Z,100.00
2023-10-04T02:43:45.933Z,100.00
2023-10-04T02:44:47.523Z,100.00
2023-10-04T02:45:50.709Z,100.00
2023-10-04T02:46:52.364Z,100.00
2023-10-04T02:47:54.748Z,100.00
2023-10-04T02:48:56.395Z,100.00
2023-10-04T02:49:57.979Z,100.00
2023-10-04T02:51:00.180Z,100.00
2023-10-04T02:52:02.095Z,100.00
2023-10-04T02:53:03.859Z,100.00
2023-10-04T02:54:05.801Z,100.00
2023-10-04T02:55:07.803Z,100.00
2023-10-04T02:56:09.472Z,100.00
2023-10-04T02:57:18.189Z,100.00
2023-10-04T02:58:19.830Z,100.00
2023-10-04T02:59:21.420Z,100.00
2023-10-04T03:00:23.408Z,100.00
2023-10-04T03:01:27.943Z,100.00
2023-10-04T03:02:30.777Z,100.00
2023-10-04T03:03:32.439Z,100.00
2023-10-04T03:04:37.903Z,100.00
2023-10-04T03:05:39.715Z,100.00
2023-10-04T03:06:41.405Z,100.00
2023-10-04T03:07:43.638Z,100.00
2023-10-04T03:08:45.481Z,100.00
2023-10-04T03:09:47.284Z,100.00
2023-10-04T03:10:49.132Z,100.00
2023-10-04T03:11:50.750Z,100.00
2023-10-04T03:12:56.990Z,100.00
2023-10-04T03:13:58.751Z,100.00
2023-10-04T03:15:00.381Z,100.00
2023-10-04T03:16:02.382Z,100.00
2023-10-04T03:17:04.053Z,100.00
2023-10-04T03:18:06.387Z,100.00
2023-10-04T03:19:08.786Z,100.00
2023-10-04T03:20:10.736Z,100.00
2023-10-04T03:21:12.506Z,100.00
2023-10-04T03:22:18.314Z,100.00
2023-10-04T03:23:19.966Z,100.00
2023-10-04T03:24:21.888Z,100.00
2023-10-04T03:25:23.967Z,100.00
2023-10-04T03:26:26.107Z,100.00
2023-10-04T03:27:31.865Z,100.00
2023-10-04T03:28:35.032Z,100.00
2023-10-04T03:29:39.082Z,100.00
2023-10-04T03:30:41.865Z,100.00
2023-10-04T03:31:43.637Z,100.00
2023-10-04T03:32:46.924Z,100.00
2023-10-04T03:33:48.642Z,100.00
2023-10-04T03:34:51.624Z,100.00
2023-10-04T03:35:53.304Z,100.00
2023-10-04T03:36:55.070Z,100.00
2023-10-04T03:37:56.847Z,100.00
2023-10-04T03:39:00.186Z,100.00
2023-10-04T03:40:03.232Z,100.00
2023-10-04T03:41:05.457Z,100.00
2023-10-04T03:42:07.300Z,100.00
2023-10-04T03:43:09.374Z,100.00
2023-10-04T03:44:13.662Z,100.00
2023-10-04T03:45:15.541Z,100.00
2023-10-04T03:46:17.236Z,100.00
2023-10-04T03:47:19.517Z,100.00
2023-10-04T03:48:21.221Z,100.00
2023-10-04T03:49:27.765Z,100.00
2023-10-04T03:50:29.582Z,100.00
2023-10-04T03:51:31.468Z,100.00
2023-10-04T03:52:36.965Z,100.00
2023-10-04T03:53:38.786Z,100.00
2023-10-04T03:54:40.659Z,100.00
2023-10-04T03:55:42.914Z,100.00
2023-10-04T03:56:45.257Z,100.00
2023-10-04T03:57:46.941Z,100.00
2023-10-04T03:58:48.857Z,100.00
2023-10-04T03:59:50.633Z,100.00
2023-10-04T04:00:52.229Z,100.00
2023-10-04T04:01:53.987Z,100.00
2023-10-04T04:02:55.852Z,100.00
2023-10-04T04:03:57.674Z,100.00
2023-10-04T04:04:59.610Z,100.00
2023-10-04T04:06:01.584Z,100.00
2023-10-04T04:07:03.234Z,100.00
2023-10-04T04:08:05.283Z,100.00
2023-10-04T04:09:07.052Z,100.00
2023-10-04T04:10:10.344Z,100.00
2023-10-04T04:11:11.946Z,100.00
2023-10-04T04:12:13.723Z,100.00
2023-10-04T04:13:15.359Z,100.00
2023-10-04T04:14:17.079Z,100.00
2023-10-04T04:15:19.178Z,100.00
2023-10-04T04:16:21.414Z,100.00
2023-10-04T04:17:23.521Z,100.00
2023-10-04T04:18:26.277Z,100.00
2023-10-04T04:19:29.911Z,100.00
2023-10-04T04:20:31.555Z,100.00
2023-10-04T04:21:33.271Z,100.00
2023-10-04T04:22:35.611Z,100.00
2023-10-04T04:23:37.896Z,100.00
2023-10-04T04:24:39.871Z,100.00
2023-10-04T04:25:41.588Z,100.00
2023-10-04T04:26:43.253Z,100.00
2023-10-04T04:27:45.795Z,100.00
2023-10-04T04:28:47.824Z,100.00
2023-10-04T04:29:53.518Z,100.00
2023-10-04T04:30:55.648Z,100.00
2023-10-04T04:31:57.320Z,100.00
2023-10-04T04:32:59.750Z,100.00
2023-10-04T04:34:03.081Z,100.00
2023-10-04T04:35:05.314Z,100.00
2023-10-04T04:36:07.488Z,100.00
2023-10-04T04:37:09.148Z,100.00
2023-10-04T04:38:11.725Z,100.00
2023-10-04T04:39:13.379Z,100.00
2023-10-04T04:40:15.117Z,100.00
2023-10-04T04:41:16.766Z,100.00
2023-10-04T04:42:18.672Z,100.00
2023-10-04T04:43:21.852Z,100.00
2023-10-04T04:44:25.369Z,100.00
2023-10-04T04:45:27.101Z,100.00
2023-10-04T04:46:29.690Z,100.00
2023-10-04T04:47:31.346Z,100.00
2023-10-04T04:48:33.274Z,100.00
2023-10-04T04:49:36.914Z,100.00
2023-10-04T04:50:38.752Z,100.00
2023-10-04T04:51:40.643Z,100.00
2023-10-04T04:52:42.505Z,100.00
2023-10-04T04:53:46.097Z,100.00
2023-10-04T04:54:50.255Z,100.00
2023-10-04T04:55:52.167Z,100.00
2023-10-04T04:56:53.850Z,100.00
2023-10-04T04:57:55.622Z,100.00
2023-10-04T04:58:57.720Z,100.00
2023-10-04T05:00:02.873Z,100.00
2023-10-04T05:01:04.638Z,100.00
2023-10-04T05:02:08.042Z,100.00
2023-10-04T05:03:12.490Z,100.00
2023-10-04T05:04:14.186Z,100.00
2023-10-04T05:05:15.805Z,100.00
2023-10-04T05:06:18.796Z,100.00
2023-10-04T05:07:20.448Z,100.00
2023-10-04T05:08:22.960Z,100.00
2023-10-04T05:09:24.604Z,100.00
2023-10-04T05:10:26.245Z,100.00
2023-10-04T05:11:27.846Z,100.00
2023-10-04T05:12:29.605Z,100.00
2023-10-04T05:13:31.310Z,100.00
2023-10-04T05:14:33.105Z,100.00
2023-10-04T05:15:35.710Z,100.00
2023-10-04T05:16:37.634Z,100.00
2023-10-04T05:17:39.370Z,100.00
2023-10-04T05:18:41.125Z,100.00
2023-10-04T05:19:42.931Z,100.00
2023-10-04T05:20:45.261Z,100.00
2023-10-04T05:21:46.962Z,100.00
2023-10-04T05:22:49.543Z,100.00
2023-10-04T05:23:51.578Z,100.00
2023-10-04T05:24:53.376Z,100.00
2023-10-04T05:25:55.252Z,100.00
2023-10-04T05:26:56.897Z,100.00
2023-10-04T05:28:05.501Z,100.00
2023-10-04T05:29:07.314Z,100.00
2023-10-04T05:30:09.544Z,100.00
2023-10-04T05:31:11.302Z,100.00
2023-10-04T05:32:12.939Z,100.00
2023-10-04T05:33:16.048Z,100.00
2023-10-04T05:34:17.737Z,100.00
2023-10-04T05:35:19.488Z,100.00
2023-10-04T05:36:21.212Z,100.00
2023-10-04T05:37:22.914Z,100.00
2023-10-04T05:38:24.683Z,100.00
2023-10-04T05:39:26.364Z,100.00
2023-10-04T05:40:28.034Z,100.00
2023-10-04T05:41:29.641Z,100.00
2023-10-04T05:42:31.227Z,100.00
2023-10-04T05:43:32.871Z,100.00
2023-10-04T05:44:34.467Z,100.00
2023-10-04T05:45:36.813Z,100.00
2023-10-04T05:46:38.446Z,100.00
2023-10-04T05:47:40.506Z,99.54
2023-10-04T05:48:42.229Z,98.43
2023-10-04T05:49:43.803Z,95.99
2023-10-04T05:50:45.458Z,96.17
2023-10-04T05:51:47.152Z,94.32
2023-10-04T05:52:49.347Z,92.29
2023-10-04T05:53:51.034Z,91.00
2023-10-04T05:54:52.624Z,90.50
2023-10-04T05:55:54.281Z,88.66
2023-10-04T05:56:55.854Z,86.32
2023-10-04T05:57:57.458Z,86.22
2023-10-04T05:58:59.079Z,87.14
2023-10-04T06:00:00.660Z,88.45
2023-10-04T06:01:02.318Z,89.43
2023-10-04T06:02:03.935Z,89.47
2023-10-04T06:03:07.509Z,88.33
2023-10-04T06:04:09.292Z,88.36
2023-10-04T06:05:10.942Z,88.31
2023-10-04T06:06:12.544Z,88.14
2023-10-04T06:07:14.310Z,88.12
2023-10-04T06:08:16.438Z,87.32
2023-10-04T06:09:18.102Z,86.06
2023-10-04T06:10:19.798Z,86.42
2023-10-04T06:11:21.426Z,86.56
2023-10-04T06:12:22.995Z,85.29
2023-10-04T06:13:25.000Z,85.96
2023-10-04T06:14:26.703Z,88.65
2023-10-04T06:15:28.360Z,89.33
2023-10-04T06:16:30.083Z,88.98
2023-10-04T06:17:31.721Z,88.64
2023-10-04T06:18:33.335Z,88.59
2023-10-04T06:19:35.265Z,88.36
2023-10-04T06:20:37.179Z,87.73
2023-10-04T06:21:38.821Z,87.78
2023-10-04T06:22:40.561Z,87.88
2023-10-04T06:23:42.134Z,87.53
2023-10-04T06:24:43.831Z,87.08
2023-10-04T06:25:50.217Z,87.87
2023-10-04T06:26:51.838Z,87.82
2023-10-04T06:27:55.746Z,87.60
2023-10-04T06:28:57.332Z,87.93
2023-10-04T06:29:58.983Z,87.32
2023-10-04T06:31:02.769Z,87.30
2023-10-04T06:32:04.539Z,88.33
2023-10-04T06:33:08.257Z,89.64
2023-10-04T06:34:09.960Z,88.79
2023-10-04T06:35:11.546Z,89.14
2023-10-04T06:36:13.192Z,89.62
2023-10-04T06:37:14.803Z,90.35
2023-10-04T06:38:16.390Z,90.25
2023-10-04T06:39:18.048Z,89.70
2023-10-04T06:40:23.245Z,89.02
2023-10-04T06:41:24.812Z,88.71
2023-10-04T06:42:26.411Z,88.95
2023-10-04T06:43:28.020Z,89.14
2023-10-04T06:44:29.615Z,88.72
2023-10-04T06:45:31.978Z,88.29
2023-10-04T06:46:33.569Z,86.86
2023-10-04T06:47:35.192Z,87.45
2023-10-04T06:48:36.861Z,86.29
2023-10-04T06:49:38.517Z,87.92
2023-10-04T06:50:41.222Z,88.21
2023-10-04T06:51:43.172Z,90.39
2023-10-04T06:52:48.414Z,90.41
2023-10-04T06:53:50.000Z,90.82
2023-10-04T06:54:51.619Z,92.82
2023-10-04T06:56:54.985Z,92.28
2023-10-04T06:57:56.564Z,90.20
2023-10-04T06:58:58.153Z,87.86
2023-10-04T06:59:59.893Z,86.16
2023-10-04T07:01:02.181Z,86.90
2023-10-04T07:02:05.290Z,87.25
2023-10-04T07:03:07.452Z,85.64
2023-10-04T07:04:09.140Z,83.51
2023-10-04T07:05:18.970Z,81.89
2023-10-04T07:06:20.562Z,82.71
2023-10-04T07:07:22.184Z,83.79
2023-10-04T07:08:23.790Z,79.04
2023-10-04T07:09:25.390Z,79.77
2023-10-04T07:10:28.695Z,78.16
2023-10-04T07:11:30.386Z,78.10
2023-10-04T07:12:32.006Z,78.35
2023-10-04T07:13:35.887Z,78.91
2023-10-04T07:14:39.635Z,77.32
2023-10-04T07:15:41.576Z,74.56
2023-10-04T07:16:43.368Z,74.26
2023-10-04T07:17:45.509Z,73.18
2023-10-04T07:18:48.982Z,73.55
2023-10-04T07:19:51.483Z,73.40
2023-10-04T07:20:53.070Z,72.90
2023-10-04T07:21:54.837Z,71.31
2023-10-04T07:22:57.292Z,69.94
2023-10-04T07:23:58.870Z,69.71
2023-10-04T07:25:01.020Z,68.70
2023-10-04T07:26:02.601Z,69.46
2023-10-04T07:27:04.632Z,70.71
2023-10-04T07:28:07.650Z,70.12
2023-10-04T07:29:09.283Z,70.29
2023-10-04T07:30:12.199Z,69.60
2023-10-04T07:31:13.842Z,70.52
2023-10-04T07:32:15.447Z,69.38
2023-10-04T07:33:17.065Z,70.07
2023-10-04T07:34:18.686Z,69.07
2023-10-04T07:35:22.723Z,68.36
2023-10-04T07:36:24.397Z,68.24
2023-10-04T07:37:25.999Z,68.05
2023-10-04T07:38:27.604Z,68.71
2023-10-04T07:39:29.302Z,70.20
2023-10-04T07:40:31.834Z,70.68
2023-10-04T07:41:33.439Z,71.55
2023-10-04T07:42:35.057Z,71.44
2023-10-04T07:43:36.975Z,70.41
2023-10-04T07:44:38.841Z,71.77
2023-10-04T07:45:40.698Z,73.32
2023-10-04T07:46:42.433Z,72.17
2023-10-04T07:47:44.463Z,71.72
2023-10-04T07:48:46.427Z,72.24
2023-10-04T07:49:48.105Z,72.65
2023-10-04T07:50:49.837Z,72.62
2023-10-04T07:51:51.487Z,72.94
2023-10-04T07:52:55.589Z,72.85
2023-10-04T07:53:57.404Z,74.06
2023-10-04T07:54:59.190Z,72.18
2023-10-04T07:56:00.853Z,71.73
2023-10-04T07:57:02.552Z,70.89
2023-10-04T07:58:04.286Z,71.70
2023-10-04T07:59:06.156Z,73.72
2023-10-04T08:00:08.430Z,73.25
2023-10-04T08:01:18.379Z,71.67
2023-10-04T08:02:20.551Z,71.41
2023-10-04T08:03:22.354Z,73.70
2023-10-04T08:04:24.074Z,74.86
2023-10-04T08:05:27.985Z,75.07
2023-10-04T08:06:29.589Z,74.88
2023-10-04T08:07:31.163Z,75.13
2023-10-04T08:08:32.758Z,75.30
2023-10-04T08:09:34.373Z,75.91
2023-10-04T08:10:37.853Z,75.21
2023-10-04T08:11:39.554Z,76.27
2023-10-04T08:12:42.670Z,75.54
2023-10-04T08:13:44.274Z,73.43
2023-10-04T08:14:45.880Z,73.73
2023-10-04T08:15:47.594Z,73.60
2023-10-04T08:16:49.694Z,72.73
2023-10-04T08:17:51.397Z,72.71
2023-10-04T08:18:53.098Z,73.67
2023-10-04T08:19:54.745Z,73.93
2023-10-04T08:20:56.416Z,74.63
2023-10-04T08:21:58.048Z,73.73
2023-10-04T08:23:00.046Z,73.62
2023-10-04T08:24:01.655Z,73.71
2023-10-04T08:25:03.618Z,73.86
2023-10-04T08:26:13.905Z,75.17
2023-10-04T08:27:15.486Z,74.21
2023-10-04T08:28:17.096Z,74.79
2023-10-04T08:29:18.702Z,76.30
2023-10-04T08:30:20.708Z,76.96
2023-10-04T08:31:22.410Z,76.65
2023-10-04T08:32:24.043Z,76.54
2023-10-04T08:33:25.658Z,76.48
2023-10-04T08:34:30.148Z,74.33
2023-10-04T08:35:33.566Z,75.46
2023-10-04T08:36:35.223Z,76.06
2023-10-04T08:37:36.838Z,76.58
2023-10-04T08:38:38.430Z,75.99
2023-10-04T08:39:40.899Z,74.19
2023-10-04T08:40:42.503Z,73.81
2023-10-04T08:41:44.849Z,74.08
2023-10-04T08:42:50.662Z,74.68
2023-10-04T08:43:52.339Z,75.81
2023-10-04T08:44:53.917Z,75.44
2023-10-04T08:45:58.086Z,75.19
2023-10-04T08:47:05.593Z,75.58
2023-10-04T08:48:07.498Z,75.70
2023-10-04T08:49:11.579Z,74.50
2023-10-04T08:50:16.013Z,74.04
2023-10-04T08:51:34.273Z,76.20
2023-10-04T08:52:37.574Z,78.42
2023-10-04T08:53:45.374Z,80.15
2023-10-04T08:54:53.328Z,80.89
2023-10-04T08:56:03.594Z,80.63
2023-10-04T08:57:24.303Z,81.52
2023-10-04T08:58:27.327Z,81.44
2023-10-04T08:59:29.857Z,81.18
2023-10-04T09:00:35.632Z,81.39
2023-10-04T09:01:37.862Z,80.00
2023-10-04T09:02:43.703Z,80.80
2023-10-04T09:03:46.183Z,80.77
2023-10-04T09:04:50.115Z,79.99
2023-10-04T09:05:52.695Z,81.26
2023-10-04T09:06:54.538Z,79.48
2023-10-04T09:07:57.693Z,78.88
2023-10-04T09:08:59.334Z,78.71
2023-10-04T09:10:03.545Z,77.26
2023-10-04T09:11:05.386Z,76.53
2023-10-04T09:12:07.470Z,75.72
2023-10-04T09:13:09.119Z,75.01
2023-10-04T09:14:10.789Z,74.90
2023-10-04T09:15:12.620Z,76.33
2023-10-04T09:16:29.243Z,74.13
2023-10-04T09:17:46.889Z,74.29
2023-10-04T09:18:48.518Z,73.41
2023-10-04T09:19:50.106Z,68.82
2023-10-04T09:20:51.705Z,68.44
2023-10-04T09:21:53.308Z,68.20
2023-10-04T09:22:55.026Z,69.37
2023-10-04T09:24:10.890Z,70.62
2023-10-04T09:25:15.548Z,68.21
2023-10-04T09:26:17.940Z,67.01
2023-10-04T09:27:19.609Z,66.36
2023-10-04T09:28:21.377Z,66.61
2023-10-04T09:29:49.741Z,65.52
2023-10-04T09:30:51.418Z,64.57
2023-10-04T09:31:53.109Z,64.34
2023-10-04T09:32:54.798Z,64.75
2023-10-04T09:34:12.843Z,65.46
2023-10-04T09:35:14.438Z,65.66
2023-10-04T09:36:36.312Z,64.66
2023-10-04T09:37:37.879Z,64.81
2023-10-04T09:38:39.632Z,63.95
2023-10-04T09:39:41.330Z,63.42
2023-10-04T09:40:52.399Z,65.96
2023-10-04T09:41:56.554Z,63.99
2023-10-04T09:42:58.176Z,63.71
2023-10-04T09:43:59.800Z,63.95
2023-10-04T09:45:08.026Z,64.13
2023-10-04T09:46:11.426Z,65.09
2023-10-04T09:47:13.702Z,65.48
2023-10-04T09:48:15.436Z,66.42
2023-10-04T09:49:17.440Z,67.07
2023-10-04T09:50:26.164Z,66.04
2023-10-04T09:51:27.823Z,66.63
2023-10-04T09:52:29.437Z,66.34
2023-10-04T09:53:31.078Z,65.43
2023-10-04T09:54:32.865Z,67.10
2023-10-04T09:55:35.793Z,65.51
2023-10-04T09:56:46.445Z,65.11
2023-10-04T09:57:48.832Z,62.66
2023-10-04T09:58:53.508Z,61.98
2023-10-04T09:59:56.956Z,62.50
2023-10-04T10:01:08.432Z,63.71
2023-10-04T10:02:11.033Z,63.20
2023-10-04T10:03:13.649Z,62.96
2023-10-04T10:04:18.133Z,62.88
2023-10-04T10:05:29.868Z,63.35
2023-10-04T10:06:34.792Z,63.81
2023-10-04T10:07:38.131Z,64.64
2023-10-04T10:08:44.102Z,64.56
2023-10-04T10:10:01.152Z,63.56
2023-10-04T10:11:07.267Z,64.12
2023-10-04T10:12:09.270Z,65.11
2023-10-04T10:13:11.199Z,65.99
2023-10-04T10:14:14.469Z,66.14
2023-10-04T10:15:16.462Z,67.14
2023-10-04T10:16:19.162Z,67.84
2023-10-04T10:17:20.950Z,68.64
2023-10-04T10:18:22.758Z,69.66
2023-10-04T10:19:25.173Z,69.92
2023-10-04T10:20:27.524Z,69.12
2023-10-04T10:22:06.852Z,70.12
2023-10-04T10:23:09.326Z,72.26
2023-10-04T10:24:15.919Z,72.94
2023-10-04T10:25:17.629Z,74.21
2023-10-04T10:26:19.949Z,74.44
2023-10-04T10:27:23.832Z,73.89
2023-10-04T10:28:25.484Z,73.68
2023-10-04T10:29:27.562Z,72.09
2023-10-04T10:30:32.486Z,72.65
2023-10-04T10:31:36.438Z,72.35
2023-10-04T10:32:50.033Z,73.13
2023-10-04T10:33:51.967Z,73.25
2023-10-04T10:34:59.240Z,73.26
2023-10-04T10:36:03.972Z,70.39
2023-10-04T10:37:18.925Z,70.64
2023-10-04T10:38:42.423Z,68.60
2023-10-04T10:39:45.302Z,68.09
2023-10-04T10:40:47.139Z,67.85
2023-10-04T10:41:48.722Z,66.57
2023-10-04T10:43:09.673Z,66.24
2023-10-04T10:44:18.063Z,66.64
2023-10-04T10:45:26.945Z,64.23
2023-10-04T10:46:29.539Z,63.79
2023-10-04T10:47:31.290Z,62.65
2023-10-04T10:48:33.185Z,64.39
2023-10-04T10:49:37.639Z,64.00
2023-10-04T10:50:42.002Z,62.11
2023-10-04T10:51:44.631Z,62.83
2023-10-04T10:52:46.281Z,62.29
2023-10-04T10:53:47.895Z,62.99
2023-10-04T10:54:49.669Z,62.25
2023-10-04T10:55:51.343Z,62.76
2023-10-04T10:56:52.991Z,61.63
2023-10-04T10:57:54.615Z,62.44
2023-10-04T10:58:57.884Z,62.77
2023-10-04T11:00:01.068Z,62.53
2023-10-04T11:01:02.741Z,63.67
2023-10-04T11:02:04.593Z,63.10
2023-10-04T11:03:08.876Z,62.91
2023-10-04T11:04:10.827Z,63.80
2023-10-04T11:05:12.568Z,64.98
2023-10-04T11:06:14.302Z,63.79
2023-10-04T11:07:16.181Z,63.55
2023-10-04T11:08:17.782Z,63.15
2023-10-04T11:09:32.313Z,63.85
2023-10-04T11:10:42.882Z,63.39
2023-10-04T11:11:44.690Z,62.82
2023-10-04T11:12:49.402Z,62.41
2023-10-04T11:13:51.079Z,63.47
2023-10-04T11:14:54.027Z,63.05
2023-10-04T11:15:55.996Z,63.27
2023-10-04T11:16:57.787Z,62.81
2023-10-04T11:17:59.461Z,63.40
2023-10-04T11:19:01.198Z,62.85
2023-10-04T11:20:20.824Z,62.92
2023-10-04T11:21:22.462Z,63.16
2023-10-04T11:22:24.158Z,64.39
2023-10-04T11:23:25.886Z,65.04
2023-10-04T11:24:27.550Z,64.01
2023-10-04T11:25:29.397Z,63.83
2023-10-04T11:26:30.982Z,62.83
2023-10-04T11:27:33.717Z,62.33
2023-10-04T11:28:35.679Z,63.51
2023-10-04T11:29:38.374Z,63.45
2023-10-04T11:30:40.210Z,62.06
2023-10-04T11:31:46.348Z,62.49
2023-10-04T11:32:48.623Z,63.85
2023-10-04T11:33:56.592Z,64.19
2023-10-04T11:34:58.924Z,64.12
2023-10-04T11:36:00.579Z,65.69
2023-10-04T11:37:03.548Z,63.91
2023-10-04T11:38:13.912Z,63.89
2023-10-04T11:39:16.089Z,63.80
2023-10-04T11:40:20.022Z,64.83
2023-10-04T11:41:23.174Z,64.96
2023-10-04T11:42:24.852Z,65.89
2023-10-04T11:43:26.601Z,64.79
2023-10-04T11:44:32.811Z,64.85
2023-10-04T11:45:34.460Z,64.41
2023-10-04T11:46:57.401Z,65.60
2023-10-04T11:48:06.971Z,65.95
2023-10-04T11:49:12.537Z,66.89
2023-10-04T11:50:14.117Z,65.41
2023-10-04T11:51:28.853Z,67.11
2023-10-04T11:52:32.550Z,66.63
2023-10-04T11:53:40.972Z,63.50
2023-10-04T11:54:45.130Z,63.46
2023-10-04T11:55:46.771Z,65.26
2023-10-04T11:56:48.366Z,65.49
2023-10-04T11:57:49.995Z,64.91
2023-10-04T11:58:55.178Z,63.85
2023-10-04T11:59:57.894Z,62.14
2023-10-04T12:01:09.365Z,61.10
2023-10-04T12:02:10.966Z,60.83
2023-10-04T12:03:12.866Z,62.65
2023-10-04T12:04:15.218Z,63.03
2023-10-04T12:05:17.389Z,62.71
2023-10-04T12:06:30.629Z,62.64
2023-10-04T12:07:33.001Z,64.17
2023-10-04T12:08:35.024Z,63.63
2023-10-04T12:09:36.639Z,62.90
2023-10-04T12:10:38.239Z,63.18
2023-10-04T12:11:39.826Z,64.95
2023-10-04T12:12:43.036Z,65.34
2023-10-04T12:13:44.861Z,64.03
2023-10-04T12:14:46.530Z,64.10
2023-10-04T12:15:48.235Z,64.30
2023-10-04T12:16:50.133Z,63.78
2023-10-04T12:17:51.819Z,60.92
2023-10-04T12:18:53.581Z,61.25
2023-10-04T12:19:55.209Z,61.72
2023-10-04T12:20:56.837Z,60.21
2023-10-04T12:22:00.085Z,60.84
2023-10-04T12:23:01.904Z,61.29
2023-10-04T12:24:03.954Z,63.01
2023-10-04T12:25:06.049Z,64.21
2023-10-04T12:26:07.701Z,67.69
2023-10-04T12:27:09.643Z,67.92
2023-10-04T12:28:11.324Z,67.40
2023-10-04T12:29:12.907Z,68.46
2023-10-04T12:30:14.793Z,68.07
2023-10-04T12:31:16.448Z,69.31
2023-10-04T12:32:18.190Z,70.47
2023-10-04T12:33:19.910Z,70.83
2023-10-04T12:34:21.671Z,71.43
2023-10-04T12:35:23.331Z,71.75
2023-10-04T12:36:24.966Z,71.65
2023-10-04T12:37:26.667Z,72.69
2023-10-04T12:38:28.755Z,73.30
2023-10-04T12:39:30.349Z,74.15
2023-10-04T12:40:31.952Z,75.08
2023-10-04T12:41:34.221Z,75.46
2023-10-04T12:42:36.052Z,74.20
2023-10-04T12:43:37.693Z,74.16
2023-10-04T12:44:39.653Z,74.49
2023-10-04T12:45:41.350Z,75.17
2023-10-04T12:46:43.024Z,74.26
2023-10-04T12:47:45.586Z,74.24
2023-10-04T12:48:47.251Z,73.83
2023-10-04T12:49:48.842Z,73.66
2023-10-04T12:50:50.961Z,74.18
2023-10-04T12:51:52.634Z,75.18
2023-10-04T12:52:54.438Z,73.54
2023-10-04T12:53:56.444Z,73.14
2023-10-04T12:54:58.152Z,73.96
2023-10-04T12:55:59.762Z,73.95
2023-10-04T12:57:01.366Z,74.22
2023-10-04T12:58:02.973Z,75.09
2023-10-04T12:59:07.639Z,74.95
2023-10-04T13:00:11.098Z,73.48
2023-10-04T13:01:12.760Z,73.74
2023-10-04T13:02:14.878Z,74.54
2023-10-04T13:03:16.776Z,73.23
2023-10-04T13:04:18.710Z,73.37
2023-10-04T13:05:20.492Z,74.16
2023-10-04T13:06:22.159Z,74.80
2023-10-04T13:07:23.823Z,74.24
2023-10-04T13:08:25.905Z,73.67
2023-10-04T13:09:27.541Z,72.88
2023-10-04T13:10:29.392Z,74.05
2023-10-04T13:11:31.413Z,74.57
2023-10-04T13:12:33.157Z,72.85
2023-10-04T13:13:34.784Z,71.46
2023-10-04T13:14:36.372Z,71.27
2023-10-04T13:15:38.000Z,70.67
2023-10-04T13:16:39.662Z,71.80
2023-10-04T13:17:41.716Z,71.69
2023-10-04T13:18:43.391Z,72.17